Time;durP1;ratioP1;P1;durP2;ratioP2;P2;SDS_P1;SDS_P2;PMS_P1;PMS_P2;Temp;Humidity;BMP_temperature;BMP_pressure;BME280_temperature;BME280_humidity;BME280_pressure;Samples;Min_cycle;Max_cycle;Signal;HPM_P1;HPM_P2
2023/10/17 00:00:12;;;;;;;1999.90;999.90;;;;;;;;;;5045583;28;20198;-62
2023/10/17 00:02:40;;;;;;;1999.90;999.90;;;;;;;;;;5045806;28;20646;-60
2023/10/17 00:05:09;;;;;;;1999.90;999.90;;;;;;;;;;5045699;28;20561;-61
2023/10/17 00:07:43;;;;;;;1999.90;999.90;;;;;;;;;;5045575;28;20662;-60
2023/10/17 00:10:14;;;;;;;1999.90;999.90;;;;;;;;;;5045628;28;20195;-60
2023/10/17 00:12:44;;;;;;;1999.90;999.90;;;;;;;;;;5045349;28;20178;-60
2023/10/17 00:15:24;;;;;;;1999.90;999.90;;;;;;;;;;5045331;28;20667;-60
2023/10/17 00:17:54;;;;;;;1999.90;999.90;;;;;;;;;;5044970;28;20195;-59
2023/10/17 00:20:25;;;;;;;1999.90;999.90;;;;;;;;;;5046184;28;20206;-60
2023/10/17 00:22:53;;;;;;;1999.90;999.90;;;;;;;;;;5045385;28;20194;-60
2023/10/17 00:25:21;;;;;;;1999.90;999.90;;;;;;;;;;5048729;28;20545;-60
2023/10/17 00:27:48;;;;;;;1999.90;999.90;;;;;;;;;;5049489;28;20248;-62
2023/10/17 00:30:18;;;;;;;1999.90;999.90;;;;;;;;;;5063936;28;20198;-61
2023/10/17 00:32:46;;;;;;;1999.90;999.90;;;;;;;;;;5061937;28;20238;-60
2023/10/17 00:35:14;;;;;;;1999.90;999.90;;;;;;;;;;5053423;28;20761;-60
2023/10/17 00:37:48;;;;;;;1999.90;999.90;;;;;;;;;;5064345;28;20231;-60
2023/10/17 00:40:34;;;;;;;1999.90;999.90;;;;;;;;;;5064444;28;20190;-60
2023/10/17 00:43:04;;;;;;;1999.90;999.90;;;;;;;;;;5063162;28;20216;-60
2023/10/17 00:45:32;;;;;;;1999.90;999.90;;;;;;;;;;5064380;28;20193;-60
2023/10/17 00:48:00;;;;;;;1999.90;999.90;;;;;;;;;;5064736;28;20193;-60
2023/10/17 00:50:28;;;;;;;1999.90;999.90;;;;;;;;;;5065127;28;20204;-60
2023/10/17 00:52:57;;;;;;;1999.90;999.90;;;;;;;;;;5064371;28;20200;-61
2023/10/17 00:55:26;;;;;;;1999.90;999.90;;;;;;;;;;5064778;28;20188;-61
2023/10/17 00:57:54;;;;;;;1999.90;999.90;;;;;;;;;;5064437;28;20271;-61
2023/10/17 01:00:30;;;;;;;1999.90;999.90;;;;;;;;;;5044543;28;20211;-60
2023/10/17 01:03:01;;;;;;;1999.90;999.90;;;;;;;;;;5044498;28;20213;-61
2023/10/17 01:05:29;;;;;;;1999.90;999.90;;;;;;;;;;5044472;28;20197;-60
2023/10/17 01:07:57;;;;;;;1999.90;999.90;;;;;;;;;;5044861;28;20205;-61
2023/10/17 01:10:28;;;;;;;1999.90;999.90;;;;;;;;;;5044581;28;20201;-61
2023/10/17 01:13:01;;;;;;;1999.90;999.90;;;;;;;;;;5044302;28;20197;-61
2023/10/17 01:15:29;;;;;;;1999.90;999.90;;;;;;;;;;5044911;28;20202;-60
2023/10/17 01:17:57;;;;;;;1999.90;999.90;;;;;;;;;;5043970;28;20612;-62
2023/10/17 01:20:25;;;;;;;1999.90;999.90;;;;;;;;;;5044524;28;20203;-60
2023/10/17 01:22:56;;;;;;;1999.90;999.90;;;;;;;;;;5044511;28;20193;-60
2023/10/17 01:25:26;;;;;;;1999.90;999.90;;;;;;;;;;5046083;28;20286;-61
2023/10/17 01:27:54;;;;;;;1999.90;999.90;;;;;;;;;;5044478;28;20676;-60
2023/10/17 01:30:22;;;;;;;1999.90;999.90;;;;;;;;;;5043465;28;20302;-61
2023/10/17 01:32:51;;;;;;;1999.90;999.90;;;;;;;;;;5044121;28;20313;-60
2023/10/17 01:35:19;;;;;;;1999.90;999.90;;;;;;;;;;5053475;28;20692;-61
2023/10/17 01:37:47;;;;;;;1999.90;999.90;;;;;;;;;;5065096;28;20202;-60
2023/10/17 01:40:22;;;;;;;1999.90;999.90;;;;;;;;;;5064826;28;20198;-61
2023/10/17 01:42:51;;;;;;;1999.90;999.90;;;;;;;;;;5064168;28;20202;-60
2023/10/17 01:45:21;;;;;;;1999.90;999.90;;;;;;;;;;5063817;28;20194;-60
2023/10/17 01:47:48;;;;;;;1999.90;999.90;;;;;;;;;;5064123;28;20222;-61
2023/10/17 01:50:15;;;;;;;1999.90;999.90;;;;;;;;;;5064028;28;20195;-60
2023/10/17 01:52:44;;;;;;;1999.90;999.90;;;;;;;;;;5064352;28;20198;-60
2023/10/17 01:55:14;;;;;;;1999.90;999.90;;;;;;;;;;5065674;28;20222;-60
2023/10/17 01:57:43;;;;;;;1999.90;999.90;;;;;;;;;;5067954;28;20190;-61
2023/10/17 02:00:23;;;;;;;1999.90;999.90;;;;;;;;;;5067710;28;20190;-60
2023/10/17 02:02:50;;;;;;;1999.90;999.90;;;;;;;;;;5067785;28;20183;-61
2023/10/17 02:05:18;;;;;;;1999.90;999.90;;;;;;;;;;5067853;28;20210;-61
2023/10/17 02:07:46;;;;;;;1999.90;999.90;;;;;;;;;;5068249;28;20199;-62
2023/10/17 02:10:17;;;;;;;1999.90;999.90;;;;;;;;;;5067261;28;20555;-61
2023/10/17 02:12:45;;;;;;;1999.90;999.90;;;;;;;;;;5068219;28;20188;-60
2023/10/17 02:15:19;;;;;;;1999.90;999.90;;;;;;;;;;5065784;28;20231;-62
2023/10/17 02:17:47;;;;;;;1999.90;999.90;;;;;;;;;;5066781;28;20280;-63
2023/10/17 02:20:23;;;;;;;1999.90;999.90;;;;;;;;;;5067942;28;20234;-61
2023/10/17 02:22:51;;;;;;;1999.90;999.90;;;;;;;;;;5067184;28;20213;-61
2023/10/17 02:25:21;;;;;;;1999.90;999.90;;;;;;;;;;5067705;28;20886;-61
2023/10/17 02:27:49;;;;;;;1999.90;999.90;;;;;;;;;;5069180;28;20276;-61
2023/10/17 02:30:20;;;;;;;1999.90;999.90;;;;;;;;;;5067893;28;20220;-60
2023/10/17 02:32:53;;;;;;;1999.90;999.90;;;;;;;;;;5067053;28;20333;-60
2023/10/17 02:35:28;;;;;;;1999.90;999.90;;;;;;;;;;5067170;28;20686;-61
2023/10/17 02:37:57;;;;;;;1999.90;999.90;;;;;;;;;;5066724;28;20175;-60
2023/10/17 02:40:25;;;;;;;1999.90;999.90;;;;;;;;;;5066581;28;20193;-60
2023/10/17 02:42:52;;;;;;;1999.90;999.90;;;;;;;;;;5065111;28;20680;-60
2023/10/17 02:45:25;;;;;;;1999.90;999.90;;;;;;;;;;5066584;28;20541;-61
2023/10/17 02:47:54;;;;;;;1999.90;999.90;;;;;;;;;;5066961;28;20193;-60
2023/10/17 02:50:41;;;;;;;1999.90;999.90;;;;;;;;;;5067021;28;20203;-62
2023/10/17 02:53:13;;;;;;;1999.90;999.90;;;;;;;;;;5064590;28;20196;-61
2023/10/17 02:55:40;;;;;;;1999.90;999.90;;;;;;;;;;5067325;28;20234;-60
2023/10/17 02:58:07;;;;;;;1999.90;999.90;;;;;;;;;;5064216;28;20187;-59
2023/10/17 03:00:36;;;;;;;1999.90;999.90;;;;;;;;;;5066318;28;20198;-61
2023/10/17 03:03:12;;;;;;;1999.90;999.90;;;;;;;;;;5066164;28;20190;-60
2023/10/17 03:05:44;;;;;;;1999.90;999.90;;;;;;;;;;5065889;28;20217;-61
2023/10/17 03:08:15;;;;;;;1999.90;999.90;;;;;;;;;;5064194;28;20197;-61
2023/10/17 03:10:43;;;;;;;1999.90;999.90;;;;;;;;;;5066674;28;20191;-60
2023/10/17 03:13:22;;;;;;;1999.90;999.90;;;;;;;;;;5066047;28;20214;-60
2023/10/17 03:15:54;;;;;;;1999.90;999.90;;;;;;;;;;5065146;28;20295;-60
2023/10/17 03:18:21;;;;;;;1999.90;999.90;;;;;;;;;;5067009;28;20265;-60
2023/10/17 03:20:52;;;;;;;1999.90;999.90;;;;;;;;;;5067054;28;20678;-60
2023/10/17 03:23:20;;;;;;;1999.90;999.90;;;;;;;;;;5066409;28;20205;-60
2023/10/17 03:25:47;;;;;;;1999.90;999.90;;;;;;;;;;5066211;28;20205;-60
2023/10/17 03:28:15;;;;;;;1999.90;999.90;;;;;;;;;;5064791;28;20608;-63
2023/10/17 03:30:43;;;;;;;1999.90;999.90;;;;;;;;;;5066162;28;20633;-60
2023/10/17 03:33:14;;;;;;;1999.90;999.90;;;;;;;;;;5066393;28;20197;-61
2023/10/17 03:36:03;;;;;;;1999.90;999.90;;;;;;;;;;5066512;28;20218;-61
2023/10/17 03:38:31;;;;;;;1999.90;999.90;;;;;;;;;;5067179;28;20193;-61
2023/10/17 03:41:03;;;;;;;1999.90;999.90;;;;;;;;;;5065695;28;20280;-60
2023/10/17 03:43:38;;;;;;;1999.90;999.90;;;;;;;;;;5066642;28;20187;-60
2023/10/17 03:46:05;;;;;;;1999.90;999.90;;;;;;;;;;5066063;28;20205;-60
2023/10/17 03:48:37;;;;;;;1999.90;999.90;;;;;;;;;;5066265;28;20204;-61
2023/10/17 03:51:19;;;;;;;1999.90;999.90;;;;;;;;;;5063723;28;20255;-60
2023/10/17 03:53:48;;;;;;;1999.90;999.90;;;;;;;;;;5065948;28;20195;-61
2023/10/17 03:56:23;;;;;;;1999.90;999.90;;;;;;;;;;5065644;28;20194;-62
2023/10/17 03:58:57;;;;;;;1999.90;999.90;;;;;;;;;;5065876;28;20197;-60
2023/10/17 04:01:26;;;;;;;1999.90;999.90;;;;;;;;;;5064595;28;20189;-60
2023/10/17 04:03:55;;;;;;;1999.90;999.90;;;;;;;;;;5065414;28;20201;-60
2023/10/17 04:06:34;;;;;;;1999.90;999.90;;;;;;;;;;5065063;28;20277;-61
2023/10/17 04:12:03;;;;;;;1999.90;999.90;;;;;;;;;;5083456;27;20821;-61
2023/10/17 04:14:33;;;;;;;1999.90;999.90;;;;;;;;;;5081537;28;20741;-62
2023/10/17 04:17:02;;;;;;;1999.90;999.90;;;;;;;;;;5081921;28;20198;-62
2023/10/17 04:19:30;;;;;;;1999.90;999.90;;;;;;;;;;5083577;28;20272;-62
2023/10/17 04:22:07;;;;;;;1999.90;999.90;;;;;;;;;;5081801;28;20253;-62
2023/10/17 04:24:35;;;;;;;1999.90;999.90;;;;;;;;;;5082977;28;20182;-62
2023/10/17 04:27:19;;;;;;;1999.90;999.90;;;;;;;;;;5081951;28;20260;-61
2023/10/17 04:29:50;;;;;;;1999.90;999.90;;;;;;;;;;5083238;28;20204;-61
2023/10/17 04:32:19;;;;;;;1999.90;999.90;;;;;;;;;;5083452;28;20205;-61
2023/10/17 04:34:47;;;;;;;1999.90;999.90;;;;;;;;;;5081870;28;20189;-61
2023/10/17 04:37:16;;;;;;;1999.90;999.90;;;;;;;;;;5083331;28;20192;-60
2023/10/17 04:39:49;;;;;;;1999.90;999.90;;;;;;;;;;5082241;28;20209;-60
2023/10/17 04:42:26;;;;;;;1999.90;999.90;;;;;;;;;;5082934;28;20223;-61
2023/10/17 04:44:52;;;;;;;1999.90;999.90;;;;;;;;;;5082777;28;20232;-60
2023/10/17 04:47:30;;;;;;;1999.90;999.90;;;;;;;;;;5081937;28;20203;-61
2023/10/17 04:49:56;;;;;;;1999.90;999.90;;;;;;;;;;5083434;28;20213;-60
2023/10/17 04:52:30;;;;;;;1999.90;999.90;;;;;;;;;;5081212;28;20654;-60
2023/10/17 04:55:05;;;;;;;1999.90;999.90;;;;;;;;;;5082696;28;20664;-60
2023/10/17 04:57:57;;;;;;;1999.90;999.90;;;;;;;;;;5082580;28;20522;-60
2023/10/17 05:03:13;;;;;;;1999.90;999.90;;;;;;;;;;5081997;28;20195;-60
2023/10/17 05:05:40;;;;;;;1999.90;999.90;;;;;;;;;;5081321;28;20484;-60
2023/10/17 05:08:31;;;;;;;1999.90;999.90;;;;;;;;;;5082514;28;20186;-60
2023/10/17 06:17:27;;;;;;;1999.90;999.90;;;;;;;;;;5066755;28;20185;-61
2023/10/17 06:19:58;;;;;;;1999.90;999.90;;;;;;;;;;5063837;28;20693;-60
2023/10/17 06:28:27;;;;;;;1999.90;999.90;;;;;;;;;;5066750;28;20201;-60
2023/10/17 06:33:36;;;;;;;1999.90;999.90;;;;;;;;;;5066255;28;20217;-60
2023/10/17 06:36:13;;;;;;;1999.90;999.90;;;;;;;;;;5066527;28;20180;-61
2023/10/17 06:38:46;;;;;;;1999.90;999.90;;;;;;;;;;5068218;28;20693;-61
2023/10/17 06:41:14;;;;;;;1999.90;999.90;;;;;;;;;;5064263;28;20200;-60
2023/10/17 06:43:46;;;;;;;1999.90;999.90;;;;;;;;;;5065102;28;20197;-60
2023/10/17 06:46:28;;;;;;;1999.90;999.90;;;;;;;;;;5066326;28;20180;-62
2023/10/17 06:48:57;;;;;;;1999.90;999.90;;;;;;;;;;5064672;28;20184;-61
2023/10/17 06:51:35;;;;;;;1999.90;999.90;;;;;;;;;;5065951;28;20887;-62
2023/10/17 06:54:06;;;;;;;1999.90;999.90;;;;;;;;;;5063588;28;20202;-62
2023/10/17 06:56:38;;;;;;;1999.90;999.90;;;;;;;;;;5066963;28;20298;-61
2023/10/17 06:59:22;;;;;;;1999.90;999.90;;;;;;;;;;5066044;28;20196;-60
2023/10/17 07:02:03;;;;;;;1999.90;999.90;;;;;;;;;;5065726;28;20189;-60
2023/10/17 07:04:33;;;;;;;1999.90;999.90;;;;;;;;;;5065241;28;20672;-62
2023/10/17 07:07:03;;;;;;;1999.90;999.90;;;;;;;;;;5065526;28;20323;-61
2023/10/17 07:09:37;;;;;;;1999.90;999.90;;;;;;;;;;5065220;28;20255;-60
2023/10/17 07:12:05;;;;;;;1999.90;999.90;;;;;;;;;;5066370;28;20624;-60
2023/10/17 07:14:36;;;;;;;1999.90;999.90;;;;;;;;;;5063589;28;20202;-61
2023/10/17 07:17:17;;;;;;;1999.90;999.90;;;;;;;;;;5066463;28;20198;-62
2023/10/17 07:19:47;;;;;;;1999.90;999.90;;;;;;;;;;5065186;28;20201;-61
2023/10/17 07:22:16;;;;;;;1999.90;999.90;;;;;;;;;;5066489;28;20242;-61
2023/10/17 07:24:48;;;;;;;1999.90;999.90;;;;;;;;;;5064929;28;20205;-61
2023/10/17 07:27:33;;;;;;;1999.90;999.90;;;;;;;;;;5065089;28;20197;-61
2023/10/17 07:30:10;;;;;;;1999.90;999.90;;;;;;;;;;5065562;28;20529;-61
2023/10/17 07:32:45;;;;;;;1999.90;999.90;;;;;;;;;;5062474;28;20681;-62
2023/10/17 07:35:16;;;;;;;1999.90;999.90;;;;;;;;;;5066057;28;20373;-61
2023/10/17 07:37:53;;;;;;;1999.90;999.90;;;;;;;;;;5065076;28;20210;-61
2023/10/17 07:40:31;;;;;;;1999.90;999.90;;;;;;;;;;5058526;28;20203;-61
2023/10/17 07:43:01;;;;;;;1999.90;999.90;;;;;;;;;;5044218;28;20220;-61
2023/10/17 07:45:37;;;;;;;1999.90;999.90;;;;;;;;;;5041431;28;20265;-62
2023/10/17 07:48:15;;;;;;;1999.90;999.90;;;;;;;;;;5044319;28;20194;-62
2023/10/17 07:50:42;;;;;;;1999.90;999.90;;;;;;;;;;5050999;28;20796;-60
2023/10/17 07:53:11;;;;;;;1999.90;999.90;;;;;;;;;;5064903;28;20194;-63
2023/10/17 07:55:39;;;;;;;1999.90;999.90;;;;;;;;;;5065520;28;20182;-61
2023/10/17 07:58:17;;;;;;;1999.90;999.90;;;;;;;;;;5064201;28;20536;-61
2023/10/17 08:00:48;;;;;;;1999.90;999.90;;;;;;;;;;5065773;28;20317;-61
2023/10/17 08:03:17;;;;;;;1999.90;999.90;;;;;;;;;;5064251;28;20225;-62
2023/10/17 08:06:04;;;;;;;1999.90;999.90;;;;;;;;;;5065824;28;20622;-61
2023/10/17 08:08:34;;;;;;;1999.90;999.90;;;;;;;;;;5065383;28;20237;-62
2023/10/17 08:11:07;;;;;;;1999.90;999.90;;;;;;;;;;5064256;28;20239;-61
2023/10/17 08:13:34;;;;;;;1999.90;999.90;;;;;;;;;;5065155;28;20658;-62
2023/10/17 08:16:11;;;;;;;1999.90;999.90;;;;;;;;;;5064334;28;20195;-61
2023/10/17 08:18:41;;;;;;;1999.90;999.90;;;;;;;;;;5065610;28;20215;-61
2023/10/17 08:23:52;;;;;;;1999.90;999.90;;;;;;;;;;5062157;28;20195;-61
2023/10/17 08:26:20;;;;;;;1999.90;999.90;;;;;;;;;;5065104;28;20274;-61
2023/10/17 08:28:47;;;;;;;1999.90;999.90;;;;;;;;;;5063150;28;20199;-61
2023/10/17 08:31:24;;;;;;;1999.90;999.90;;;;;;;;;;5064769;28;20214;-61
2023/10/17 08:33:57;;;;;;;1999.90;999.90;;;;;;;;;;5063069;28;20264;-61
2023/10/17 08:36:28;;;;;;;1999.90;999.90;;;;;;;;;;5063987;28;20187;-61
2023/10/17 08:38:59;;;;;;;1999.90;999.90;;;;;;;;;;5064415;28;20176;-61
2023/10/17 08:41:26;;;;;;;1999.90;999.90;;;;;;;;;;5045465;28;20241;-61
2023/10/17 08:43:56;;;;;;;1999.90;999.90;;;;;;;;;;5064584;28;20206;-61
2023/10/17 08:46:23;;;;;;;1999.90;999.90;;;;;;;;;;5063197;28;20221;-61
2023/10/17 08:48:56;;;;;;;1999.90;999.90;;;;;;;;;;5065530;28;20188;-61
2023/10/17 08:51:24;;;;;;;1999.90;999.90;;;;;;;;;;5064962;28;20212;-62
2023/10/17 08:53:54;;;;;;;1999.90;999.90;;;;;;;;;;5063508;28;20192;-61
2023/10/17 08:56:23;;;;;;;1999.90;999.90;;;;;;;;;;5065899;28;20209;-60
2023/10/17 08:59:03;;;;;;;1999.90;999.90;;;;;;;;;;5067976;28;20226;-60
2023/10/17 09:01:30;;;;;;;1999.90;999.90;;;;;;;;;;5069042;28;20338;-62
2023/10/17 09:04:03;;;;;;;1999.90;999.90;;;;;;;;;;5067833;28;20192;-61
2023/10/17 09:06:29;;;;;;;1999.90;999.90;;;;;;;;;;5068970;28;20243;-61
2023/10/17 09:09:17;;;;;;;1999.90;999.90;;;;;;;;;;5068857;28;20205;-61
2023/10/17 09:14:40;;;;;;;1999.90;999.90;;;;;;;;;;5068863;28;20191;-61
2023/10/17 09:17:10;;;;;;;1999.90;999.90;;;;;;;;;;5068517;28;20630;-61
2023/10/17 09:19:46;;;;;;;1999.90;999.90;;;;;;;;;;5068708;28;20187;-62
2023/10/17 09:22:14;;;;;;;1999.90;999.90;;;;;;;;;;5067525;28;20489;-61
2023/10/17 09:24:45;;;;;;;1999.90;999.90;;;;;;;;;;5066372;28;20926;-61
2023/10/17 09:27:14;;;;;;;1999.90;999.90;;;;;;;;;;5068365;28;20191;-62
2023/10/17 09:29:49;;;;;;;1999.90;999.90;;;;;;;;;;5066650;28;20219;-62
2023/10/17 09:32:35;;;;;;;1999.90;999.90;;;;;;;;;;5068099;28;20218;-63
2023/10/17 09:35:10;;;;;;;1999.90;999.90;;;;;;;;;;5067557;28;20198;-62
2023/10/17 09:37:38;;;;;;;1999.90;999.90;;;;;;;;;;5066591;28;20207;-63
2023/10/17 09:40:12;;;;;;;1999.90;999.90;;;;;;;;;;5068691;28;20207;-64
2023/10/17 09:42:44;;;;;;;1999.90;999.90;;;;;;;;;;5066985;28;20184;-63
2023/10/17 09:45:13;;;;;;;1999.90;999.90;;;;;;;;;;5068435;28;20247;-64
2023/10/17 09:47:45;;;;;;;1999.90;999.90;;;;;;;;;;5067440;28;20192;-62
2023/10/17 09:50:16;;;;;;;1999.90;999.90;;;;;;;;;;5068203;28;20241;-64
2023/10/17 09:52:45;;;;;;;1999.90;999.90;;;;;;;;;;5068634;28;20303;-62
2023/10/17 09:55:14;;;;;;;1999.90;999.90;;;;;;;;;;5065244;28;20254;-63
2023/10/17 09:57:45;;;;;;;1999.90;999.90;;;;;;;;;;5068097;28;20689;-64
2023/10/17 10:00:19;;;;;;;1999.90;999.90;;;;;;;;;;5067186;28;20194;-64
2023/10/17 10:02:49;;;;;;;1999.90;999.90;;;;;;;;;;5068359;28;20191;-64
2023/10/17 10:05:24;;;;;;;1999.90;999.90;;;;;;;;;;5067948;28;20193;-64
2023/10/17 10:07:52;;;;;;;1999.90;999.90;;;;;;;;;;5066798;28;20220;-65
2023/10/17 10:10:38;;;;;;;1999.90;999.90;;;;;;;;;;5068162;28;20234;-63
2023/10/17 10:13:12;;;;;;;1999.90;999.90;;;;;;;;;;5064806;28;20231;-65
2023/10/17 10:16:01;;;;;;;1999.90;999.90;;;;;;;;;;5067925;28;20271;-62
2023/10/17 10:18:47;;;;;;;1999.90;999.90;;;;;;;;;;5066373;28;20640;-65
2023/10/17 10:21:15;;;;;;;1999.90;999.90;;;;;;;;;;5066793;28;20189;-65
2023/10/17 10:23:45;;;;;;;1999.90;999.90;;;;;;;;;;5067458;28;20221;-65
2023/10/17 10:26:17;;;;;;;1999.90;999.90;;;;;;;;;;5066732;28;20191;-65
2023/10/17 10:28:45;;;;;;;1999.90;999.90;;;;;;;;;;5067474;28;20213;-65
2023/10/17 10:31:31;;;;;;;1999.90;999.90;;;;;;;;;;5067518;28;20191;-65
2023/10/17 10:33:59;;;;;;;1999.90;999.90;;;;;;;;;;5065797;28;20273;-64
2023/10/17 10:36:27;;;;;;;1999.90;999.90;;;;;;;;;;5067640;28;20190;-64
2023/10/17 10:38:54;;;;;;;1999.90;999.90;;;;;;;;;;5065863;28;20202;-64
2023/10/17 10:41:23;;;;;;;1999.90;999.90;;;;;;;;;;5067566;28;20217;-64
2023/10/17 10:43:59;;;;;;;1999.90;999.90;;;;;;;;;;5065873;28;20191;-63
2023/10/17 10:46:28;;;;;;;1999.90;999.90;;;;;;;;;;5065770;28;20190;-64
2023/10/17 10:48:56;;;;;;;1999.90;999.90;;;;;;;;;;5067396;28;20357;-65
2023/10/17 10:51:24;;;;;;;1999.90;999.90;;;;;;;;;;5064448;28;20252;-64
2023/10/17 10:53:56;;;;;;;1999.90;999.90;;;;;;;;;;5066735;28;20672;-64
2023/10/17 10:56:24;;;;;;;1999.90;999.90;;;;;;;;;;5066022;28;20237;-64
2023/10/17 10:58:55;;;;;;;1999.90;999.90;;;;;;;;;;5067253;28;20199;-63
2023/10/17 11:01:22;;;;;;;1999.90;999.90;;;;;;;;;;5066550;28;20180;-64
2023/10/17 11:03:50;;;;;;;1999.90;999.90;;;;;;;;;;5065914;28;20198;-65
2023/10/17 11:06:23;;;;;;;1999.90;999.90;;;;;;;;;;5066771;28;20248;-63
2023/10/17 11:08:51;;;;;;;1999.90;999.90;;;;;;;;;;5064720;28;20207;-64
2023/10/17 11:11:19;;;;;;;1999.90;999.90;;;;;;;;;;5064967;28;20262;-63
2023/10/17 11:13:47;;;;;;;1999.90;999.90;;;;;;;;;;5064785;28;20193;-64
2023/10/17 11:16:19;;;;;;;1999.90;999.90;;;;;;;;;;5065195;28;20210;-64
2023/10/17 11:18:47;;;;;;;1999.90;999.90;;;;;;;;;;5065313;28;20201;-64
2023/10/17 11:21:14;;;;;;;1999.90;999.90;;;;;;;;;;5065173;28;20183;-64
2023/10/17 11:23:46;;;;;;;1999.90;999.90;;;;;;;;;;5066715;28;20199;-64
2023/10/17 11:26:14;;;;;;;1999.90;999.90;;;;;;;;;;5065231;28;20925;-63
2023/10/17 11:28:42;;;;;;;1999.90;999.90;;;;;;;;;;5066170;28;20845;-66
2023/10/17 11:31:21;;;;;;;1999.90;999.90;;;;;;;;;;5064986;28;20274;-68
2023/10/17 11:33:54;;;;;;;1999.90;999.90;;;;;;;;;;5065628;28;20521;-65
2023/10/17 11:36:23;;;;;;;1999.90;999.90;;;;;;;;;;5065498;28;20180;-67
2023/10/17 11:38:56;;;;;;;1999.90;999.90;;;;;;;;;;5064678;28;20262;-68
2023/10/17 11:41:29;;;;;;;1999.90;999.90;;;;;;;;;;5046415;28;20180;-66
2023/10/17 11:43:57;;;;;;;1999.90;999.90;;;;;;;;;;5051521;28;20195;-71
2023/10/17 11:46:30;;;;;;;1999.90;999.90;;;;;;;;;;5066305;28;20195;-66
2023/10/17 11:49:21;;;;;;;1999.90;999.90;;;;;;;;;;5064689;28;20490;-65
2023/10/17 11:51:54;;;;;;;1999.90;999.90;;;;;;;;;;5065149;28;20237;-64
2023/10/17 11:54:22;;;;;;;1999.90;999.90;;;;;;;;;;5065698;28;20195;-70
2023/10/17 11:56:50;;;;;;;1999.90;999.90;;;;;;;;;;5064304;28;20253;-70
2023/10/17 11:59:19;;;;;;;1999.90;999.90;;;;;;;;;;5066050;28;20732;-71
2023/10/17 12:01:48;;;;;;;1999.90;999.90;;;;;;;;;;5063246;28;20286;-69
2023/10/17 12:04:16;;;;;;;1999.90;999.90;;;;;;;;;;5063700;28;20202;-65
2023/10/17 12:06:47;;;;;;;1999.90;999.90;;;;;;;;;;5064059;28;20674;-72
2023/10/17 12:09:22;;;;;;;1999.90;999.90;;;;;;;;;;5064782;28;20210;-71
2023/10/17 12:11:50;;;;;;;1999.90;999.90;;;;;;;;;;5061672;28;20299;-72
2023/10/17 12:14:20;;;;;;;1999.90;999.90;;;;;;;;;;5064413;28;20195;-66
2023/10/17 12:16:53;;;;;;;1999.90;999.90;;;;;;;;;;5066238;28;20199;-65
2023/10/17 12:19:21;;;;;;;1999.90;999.90;;;;;;;;;;5064689;28;20565;-68
2023/10/17 12:21:50;;;;;;;1999.90;999.90;;;;;;;;;;5064942;28;20551;-68
2023/10/17 12:24:19;;;;;;;1999.90;999.90;;;;;;;;;;5064207;28;20195;-69
2023/10/17 12:26:47;;;;;;;1999.90;999.90;;;;;;;;;;5064095;28;20287;-65
2023/10/17 12:29:15;;;;;;;1999.90;999.90;;;;;;;;;;5065187;28;20191;-70
2023/10/17 12:31:42;;;;;;;1999.90;999.90;;;;;;;;;;5064345;28;20205;-66
2023/10/17 12:34:09;;;;;;;1999.90;999.90;;;;;;;;;;5068787;28;20223;-68
2023/10/17 12:36:37;;;;;;;1999.90;999.90;;;;;;;;;;5052725;28;20190;-66
2023/10/17 12:39:07;;;;;;;1999.90;999.90;;;;;;;;;;5067820;28;20878;-65
2023/10/17 12:41:35;;;;;;;1999.90;999.90;;;;;;;;;;5069331;28;20191;-71
2023/10/17 12:44:03;;;;;;;1999.90;999.90;;;;;;;;;;5064243;28;20565;-71
2023/10/17 12:46:31;;;;;;;1999.90;999.90;;;;;;;;;;5069643;28;20195;-71
2023/10/17 12:48:59;;;;;;;1999.90;999.90;;;;;;;;;;5065210;28;20685;-69
2023/10/17 12:51:27;;;;;;;1999.90;999.90;;;;;;;;;;5068944;28;20187;-68
2023/10/17 12:53:55;;;;;;;1999.90;999.90;;;;;;;;;;5067812;28;20214;-71
2023/10/17 12:56:24;;;;;;;1999.90;999.90;;;;;;;;;;5067915;28;20225;-66
2023/10/17 12:58:53;;;;;;;1999.90;999.90;;;;;;;;;;5069322;28;20193;-66
2023/10/17 13:01:24;;;;;;;1999.90;999.90;;;;;;;;;;5068599;28;20682;-66
2023/10/17 13:03:53;;;;;;;1999.90;999.90;;;;;;;;;;5069249;28;20642;-66
2023/10/17 13:06:24;;;;;;;1999.90;999.90;;;;;;;;;;5066710;28;20266;-66
2023/10/17 13:08:56;;;;;;;1999.90;999.90;;;;;;;;;;5069819;28;20250;-66
2023/10/17 13:11:25;;;;;;;1999.90;999.90;;;;;;;;;;5066659;28;20227;-67
2023/10/17 13:13:52;;;;;;;1999.90;999.90;;;;;;;;;;5067428;28;20233;-65
2023/10/17 13:16:21;;;;;;;1999.90;999.90;;;;;;;;;;5067399;28;20188;-71
2023/10/17 13:18:50;;;;;;;1999.90;999.90;;;;;;;;;;5067683;28;20264;-65
2023/10/17 13:21:17;;;;;;;1999.90;999.90;;;;;;;;;;5067855;28;20206;-66
2023/10/17 13:23:45;;;;;;;1999.90;999.90;;;;;;;;;;5067276;28;20187;-66
2023/10/17 13:26:12;;;;;;;1999.90;999.90;;;;;;;;;;5068239;28;20206;-67
2023/10/17 13:28:41;;;;;;;1999.90;999.90;;;;;;;;;;5050045;28;20197;-70
2023/10/17 13:31:12;;;;;;;1999.90;999.90;;;;;;;;;;5047529;28;20208;-70
2023/10/17 13:33:39;;;;;;;1999.90;999.90;;;;;;;;;;5046783;28;20230;-71
2023/10/17 13:36:07;;;;;;;1999.90;999.90;;;;;;;;;;5062625;28;20199;-71
2023/10/17 13:38:37;;;;;;;1999.90;999.90;;;;;;;;;;5068208;28;20268;-67
2023/10/17 13:41:05;;;;;;;1999.90;999.90;;;;;;;;;;5065584;28;20206;-67
2023/10/17 13:43:32;;;;;;;1999.90;999.90;;;;;;;;;;5067423;28;20202;-66
2023/10/17 13:46:01;;;;;;;1999.90;999.90;;;;;;;;;;5066814;28;20547;-66
2023/10/17 13:48:28;;;;;;;1999.90;999.90;;;;;;;;;;5067834;28;20294;-69
2023/10/17 13:51:03;;;;;;;1999.90;999.90;;;;;;;;;;5067219;28;20199;-69
2023/10/17 13:53:30;;;;;;;1999.90;999.90;;;;;;;;;;5066622;28;20681;-68
2023/10/17 13:55:58;;;;;;;1999.90;999.90;;;;;;;;;;5068233;28;20238;-68
2023/10/17 13:58:25;;;;;;;1999.90;999.90;;;;;;;;;;5065071;28;20194;-68
2023/10/17 14:00:54;;;;;;;1999.90;999.90;;;;;;;;;;5050341;28;20252;-67
2023/10/17 14:03:23;;;;;;;1999.90;999.90;;;;;;;;;;5066657;28;20222;-66
2023/10/17 14:05:51;;;;;;;1999.90;999.90;;;;;;;;;;5068047;28;20199;-68
2023/10/17 14:08:21;;;;;;;1999.90;999.90;;;;;;;;;;5068579;28;20360;-68
2023/10/17 14:10:49;;;;;;;1999.90;999.90;;;;;;;;;;5067088;28;20224;-68
2023/10/17 14:13:17;;;;;;;1999.90;999.90;;;;;;;;;;5066028;28;20296;-67
2023/10/17 14:15:45;;;;;;;1999.90;999.90;;;;;;;;;;5065763;28;20199;-66
2023/10/17 14:18:14;;;;;;;1999.90;999.90;;;;;;;;;;5066429;28;20675;-70
2023/10/17 14:21:04;;;;;;;1999.90;999.90;;;;;;;;;;5067107;28;20191;-67
2023/10/17 14:23:32;;;;;;;1999.90;999.90;;;;;;;;;;5066547;28;20175;-68
2023/10/17 14:26:03;;;;;;;1999.90;999.90;;;;;;;;;;5068166;28;20192;-68
2023/10/17 14:28:30;;;;;;;1999.90;999.90;;;;;;;;;;5066018;28;20545;-69
2023/10/17 14:30:57;;;;;;;1999.90;999.90;;;;;;;;;;5067682;28;20603;-67
2023/10/17 14:33:25;;;;;;;1999.90;999.90;;;;;;;;;;5065781;28;20299;-68
2023/10/17 14:35:54;;;;;;;1999.90;999.90;;;;;;;;;;5067851;28;20188;-67
2023/10/17 14:38:22;;;;;;;1999.90;999.90;;;;;;;;;;5066913;28;20190;-67
2023/10/17 14:40:49;;;;;;;1999.90;999.90;;;;;;;;;;5067011;28;20274;-65
2023/10/17 14:43:16;;;;;;;1999.90;999.90;;;;;;;;;;5067142;28;20204;-66
2023/10/17 14:45:44;;;;;;;1999.90;999.90;;;;;;;;;;5064740;28;20209;-68
2023/10/17 14:48:12;;;;;;;1999.90;999.90;;;;;;;;;;5067204;28;20195;-67
2023/10/17 14:50:39;;;;;;;1999.90;999.90;;;;;;;;;;5066280;28;20278;-68
2023/10/17 14:53:08;;;;;;;1999.90;999.90;;;;;;;;;;5066242;28;20953;-66
2023/10/17 14:55:35;;;;;;;1999.90;999.90;;;;;;;;;;5065974;28;20214;-66
2023/10/17 14:58:03;;;;;;;1999.90;999.90;;;;;;;;;;5066084;28;20191;-66
2023/10/17 15:00:31;;;;;;;1999.90;999.90;;;;;;;;;;5067348;28;20213;-66
2023/10/17 15:03:02;;;;;;;1999.90;999.90;;;;;;;;;;5065332;28;20691;-66
2023/10/17 15:05:30;;;;;;;1999.90;999.90;;;;;;;;;;5066708;28;20549;-65
2023/10/17 15:07:58;;;;;;;1999.90;999.90;;;;;;;;;;5066140;28;20298;-68
2023/10/17 15:10:27;;;;;;;1999.90;999.90;;;;;;;;;;5066361;28;20237;-67
2023/10/17 15:12:55;;;;;;;1999.90;999.90;;;;;;;;;;5066181;28;20215;-66
2023/10/17 15:15:23;;;;;;;1999.90;999.90;;;;;;;;;;5064850;28;20538;-66
2023/10/17 15:17:51;;;;;;;1999.90;999.90;;;;;;;;;;5067873;28;20195;-67
2023/10/17 15:20:18;;;;;;;1999.90;999.90;;;;;;;;;;5065171;28;20206;-66
2023/10/17 15:22:46;;;;;;;1999.90;999.90;;;;;;;;;;5066961;28;20203;-65
2023/10/17 15:25:14;;;;;;;1999.90;999.90;;;;;;;;;;5065018;28;20206;-65
2023/10/17 15:27:43;;;;;;;1999.90;999.90;;;;;;;;;;5065361;28;20191;-65